Freeport, TX

12:48 AM CST on January 28, 2015 (GMT -0600)
Scholes International At Galveston | Change Station
CLOSE
Current Station
Airport
Location: Galveston,
Elevation: 3 ft
Nearby Weather Stations

Elev 3 ft 29.27 °N, 94.86 °W | Updated 56 minutes ago

Clear
Clear
57 °F
Feels Like 57 °F
N
5
Wind Variable Wind from SSE

Today
High -- | Low -- °F
--% Chance of Precip.
Yesterday
High -- | Low -- °F
Precip. -- in
7:12 AM 5:56 PM
First Quarter, 62% visible
Pressure 30.17 in
Visibility 10.0 miles
Clouds Clear
Dew Point 56 °F
Humidity 96%
Rainfall 0.00 in
Snow Depth Not available.
UV 0 out of 12
Pollen 6.80 out of 12
Air Quality Not available.
Flu Activity Not available.
METAR KGLS 280552Z AUTO 16004KT 10SM CLR 14/13 A3016 RMK AO2 SLP214 T01390133 10156 20128 402390100 50002

More Conditions Fewer Conditions

Pressure 30.17 in
Visibility 10.0 miles
Clouds Clear
Dew Point 56 °F
Humidity 96%
Rainfall 0.00 in
Snow Depth Not available.
UV 0 out of 12
Pollen 6.80 out of 12
Air Quality Not available.
Flu Activity Not available.
METAR KGLS 280552Z AUTO 16004KT 10SM CLR 14/13 A3016 RMK AO2 SLP214 T01390133 10156 20128 402390100 50002

More Conditions Fewer Conditions

10-Day Weather Forecast

Almanac

Astronomy

Jan. 28, 2015 Rise Set
Actual Time
Civil Twilight
Nautical Twilight
Astronomical Twilight
Moon
Length of Visible Light
Length of Day
Tomorrow will be .
, % of the Moon is Illuminated

Today's Extremes

State Highs State Lows

Community

WunderPhotos

Upload Photos

1,791,114 photos uploaded!

WunderBlogs® & News

Nearby

Air Quality

  Air Quality AQ Index Pollutant
Not available.

Snow Depth

Station Depth Elevation

Earthquake Activity

City Distance Mag. Time & Date
Minimum magnitude displayed is 2.5.

Coastal Water Temperatures

Place Temperature

Nearby Weather Stations